sensor_id;sensor_type;location;lat;lon;timestamp;P1;durP1;ratioP1;P2;durP2;ratioP2
48751;SDS011;34544;48.836;9.174;2023-11-19T00:00:33;2.90;;;1.80;;
48751;SDS011;34544;48.836;9.174;2023-11-19T00:02:59;3.30;;;2.10;;
48751;SDS011;34544;48.836;9.174;2023-11-19T00:05:25;3.60;;;1.80;;
48751;SDS011;34544;48.836;9.174;2023-11-19T00:07:53;2.28;;;1.88;;
48751;SDS011;34544;48.836;9.174;2023-11-19T00:10:19;5.57;;;2.95;;
48751;SDS011;34544;48.836;9.174;2023-11-19T00:12:46;3.42;;;2.40;;
48751;SDS011;34544;48.836;9.174;2023-11-19T00:15:13;2.47;;;1.85;;
48751;SDS011;34544;48.836;9.174;2023-11-19T00:17:40;5.60;;;2.20;;
48751;SDS011;34544;48.836;9.174;2023-11-19T00:20:17;2.60;;;2.13;;
48751;SDS011;34544;48.836;9.174;2023-11-19T00:22:44;3.63;;;2.10;;
48751;SDS011;34544;48.836;9.174;2023-11-19T00:25:13;3.03;;;2.03;;
48751;SDS011;34544;48.836;9.174;2023-11-19T00:27:39;2.42;;;1.90;;
48751;SDS011;34544;48.836;9.174;2023-11-19T00:30:05;2.40;;;1.80;;
48751;SDS011;34544;48.836;9.174;2023-11-19T00:32:32;2.65;;;1.35;;
48751;SDS011;34544;48.836;9.174;2023-11-19T00:34:59;4.15;;;1.45;;
48751;SDS011;34544;48.836;9.174;2023-11-19T00:37:25;1.85;;;1.45;;
48751;SDS011;34544;48.836;9.174;2023-11-19T00:39:51;1.80;;;1.33;;
48751;SDS011;34544;48.836;9.174;2023-11-19T00:42:29;1.13;;;0.98;;
48751;SDS011;34544;48.836;9.174;2023-11-19T00:44:55;1.83;;;0.98;;
48751;SDS011;34544;48.836;9.174;2023-11-19T00:47:21;1.65;;;1.23;;
48751;SDS011;34544;48.836;9.174;2023-11-19T00:49:48;3.25;;;1.27;;
48751;SDS011;34544;48.836;9.174;2023-11-19T00:52:14;1.50;;;1.25;;
48751;SDS011;34544;48.836;9.174;2023-11-19T00:54:41;1.50;;;1.15;;
48751;SDS011;34544;48.836;9.174;2023-11-19T00:57:07;2.00;;;1.15;;
48751;SDS011;34544;48.836;9.174;2023-11-19T00:59:35;2.10;;;1.30;;
48751;SDS011;34544;48.836;9.174;2023-11-19T01:02:02;1.15;;;0.93;;
48751;SDS011;34544;48.836;9.174;2023-11-19T01:04:28;3.65;;;1.02;;
48751;SDS011;34544;48.836;9.174;2023-11-19T01:06:55;0.85;;;0.70;;
48751;SDS011;34544;48.836;9.174;2023-11-19T01:09:20;2.83;;;1.27;;
48751;SDS011;34544;48.836;9.174;2023-11-19T01:11:46;1.08;;;0.73;;
48751;SDS011;34544;48.836;9.174;2023-11-19T01:14:12;2.95;;;1.27;;
48751;SDS011;34544;48.836;9.174;2023-11-19T01:16:37;2.65;;;1.23;;
48751;SDS011;34544;48.836;9.174;2023-11-19T01:19:03;2.05;;;0.80;;
48751;SDS011;34544;48.836;9.174;2023-11-19T01:21:30;3.35;;;0.90;;
48751;SDS011;34544;48.836;9.174;2023-11-19T01:23:57;1.40;;;0.85;;
48751;SDS011;34544;48.836;9.174;2023-11-19T01:26:24;3.85;;;1.00;;
48751;SDS011;34544;48.836;9.174;2023-11-19T01:28:50;3.70;;;0.95;;
48751;SDS011;34544;48.836;9.174;2023-11-19T01:31:17;1.38;;;0.75;;
48751;SDS011;34544;48.836;9.174;2023-11-19T01:33:43;7.03;;;1.25;;
48751;SDS011;34544;48.836;9.174;2023-11-19T01:36:12;1.85;;;1.20;;
48751;SDS011;34544;48.836;9.174;2023-11-19T01:38:39;3.97;;;1.48;;
48751;SDS011;34544;48.836;9.174;2023-11-19T01:41:04;1.95;;;0.95;;
48751;SDS011;34544;48.836;9.174;2023-11-19T01:43:34;3.22;;;0.80;;
48751;SDS011;34544;48.836;9.174;2023-11-19T01:46:01;0.63;;;0.32;;
48751;SDS011;34544;48.836;9.174;2023-11-19T01:48:31;0.90;;;0.57;;
48751;SDS011;34544;48.836;9.174;2023-11-19T01:50:59;0.20;;;0.20;;
48751;SDS011;34544;48.836;9.174;2023-11-19T01:53:26;0.95;;;0.30;;
48751;SDS011;34544;48.836;9.174;2023-11-19T01:55:52;1.13;;;0.30;;
48751;SDS011;34544;48.836;9.174;2023-11-19T01:58:18;0.43;;;0.20;;
48751;SDS011;34544;48.836;9.174;2023-11-19T02:00:45;1.05;;;0.63;;
48751;SDS011;34544;48.836;9.174;2023-11-19T02:03:11;0.57;;;0.30;;
48751;SDS011;34544;48.836;9.174;2023-11-19T02:05:38;0.63;;;0.40;;
48751;SDS011;34544;48.836;9.174;2023-11-19T02:08:04;0.52;;;0.40;;
48751;SDS011;34544;48.836;9.174;2023-11-19T02:10:30;0.57;;;0.40;;
48751;SDS011;34544;48.836;9.174;2023-11-19T02:12:57;1.30;;;0.60;;
48751;SDS011;34544;48.836;9.174;2023-11-19T02:15:23;1.10;;;0.30;;
48751;SDS011;34544;48.836;9.174;2023-11-19T02:17:50;0.25;;;0.13;;
48751;SDS011;34544;48.836;9.174;2023-11-19T02:20:16;0.50;;;0.30;;
48751;SDS011;34544;48.836;9.174;2023-11-19T02:22:45;1.20;;;0.28;;
48751;SDS011;34544;48.836;9.174;2023-11-19T02:25:15;0.73;;;0.30;;
48751;SDS011;34544;48.836;9.174;2023-11-19T02:27:58;0.47;;;0.40;;
48751;SDS011;34544;48.836;9.174;2023-11-19T02:30:25;0.57;;;0.20;;
48751;SDS011;34544;48.836;9.174;2023-11-19T02:32:55;0.32;;;0.30;;
48751;SDS011;34544;48.836;9.174;2023-11-19T02:35:22;0.52;;;0.38;;
48751;SDS011;34544;48.836;9.174;2023-11-19T02:37:48;0.60;;;0.10;;
48751;SDS011;34544;48.836;9.174;2023-11-19T02:40:14;1.42;;;0.35;;
48751;SDS011;34544;48.836;9.174;2023-11-19T02:42:40;0.25;;;0.10;;
48751;SDS011;34544;48.836;9.174;2023-11-19T02:45:06;0.50;;;0.25;;
48751;SDS011;34544;48.836;9.174;2023-11-19T02:47:33;0.57;;;0.40;;
48751;SDS011;34544;48.836;9.174;2023-11-19T02:49:59;0.25;;;0.20;;
48751;SDS011;34544;48.836;9.174;2023-11-19T02:52:25;0.40;;;0.40;;
48751;SDS011;34544;48.836;9.174;2023-11-19T02:54:51;0.20;;;0.20;;
48751;SDS011;34544;48.836;9.174;2023-11-19T02:57:17;0.57;;;0.35;;
48751;SDS011;34544;48.836;9.174;2023-11-19T02:59:46;0.20;;;0.20;;
48751;SDS011;34544;48.836;9.174;2023-11-19T03:02:12;1.48;;;0.38;;
48751;SDS011;34544;48.836;9.174;2023-11-19T03:04:41;0.95;;;0.50;;
48751;SDS011;34544;48.836;9.174;2023-11-19T03:07:08;1.17;;;0.57;;
48751;SDS011;34544;48.836;9.174;2023-11-19T03:09:34;1.70;;;0.60;;
48751;SDS011;34544;48.836;9.174;2023-11-19T03:12:01;1.65;;;0.80;;
48751;SDS011;34544;48.836;9.174;2023-11-19T03:14:27;2.08;;;1.08;;
48751;SDS011;34544;48.836;9.174;2023-11-19T03:16:53;1.55;;;1.20;;
48751;SDS011;34544;48.836;9.174;2023-11-19T03:19:19;2.92;;;0.75;;
48751;SDS011;34544;48.836;9.174;2023-11-19T03:21:45;4.03;;;1.25;;
48751;SDS011;34544;48.836;9.174;2023-11-19T03:24:12;1.75;;;1.13;;
48751;SDS011;34544;48.836;9.174;2023-11-19T03:26:38;1.88;;;1.48;;
48751;SDS011;34544;48.836;9.174;2023-11-19T03:29:04;3.72;;;1.85;;
48751;SDS011;34544;48.836;9.174;2023-11-19T03:31:30;1.85;;;1.55;;
48751;SDS011;34544;48.836;9.174;2023-11-19T03:33:56;3.58;;;1.98;;
48751;SDS011;34544;48.836;9.174;2023-11-19T03:36:21;2.17;;;1.80;;
48751;SDS011;34544;48.836;9.174;2023-11-19T03:38:48;3.47;;;1.80;;
48751;SDS011;34544;48.836;9.174;2023-11-19T03:41:14;2.53;;;1.85;;
48751;SDS011;34544;48.836;9.174;2023-11-19T03:43:40;3.63;;;2.08;;
48751;SDS011;34544;48.836;9.174;2023-11-19T03:46:16;3.28;;;2.25;;
48751;SDS011;34544;48.836;9.174;2023-11-19T03:48:46;2.38;;;2.00;;
48751;SDS011;34544;48.836;9.174;2023-11-19T03:51:13;3.20;;;2.25;;
48751;SDS011;34544;48.836;9.174;2023-11-19T03:53:43;1.98;;;1.75;;
48751;SDS011;34544;48.836;9.174;2023-11-19T03:56:10;2.88;;;2.53;;
48751;SDS011;34544;48.836;9.174;2023-11-19T03:58:37;2.45;;;1.90;;
48751;SDS011;34544;48.836;9.174;2023-11-19T04:01:10;3.20;;;2.13;;
48751;SDS011;34544;48.836;9.174;2023-11-19T04:03:38;3.22;;;2.08;;
48751;SDS011;34544;48.836;9.174;2023-11-19T04:06:04;3.17;;;2.30;;
48751;SDS011;34544;48.836;9.174;2023-11-19T04:08:30;2.97;;;2.42;;
48751;SDS011;34544;48.836;9.174;2023-11-19T04:10:56;2.60;;;2.40;;
48751;SDS011;34544;48.836;9.174;2023-11-19T04:13:22;3.50;;;2.08;;
48751;SDS011;34544;48.836;9.174;2023-11-19T04:15:49;2.92;;;2.38;;
48751;SDS011;34544;48.836;9.174;2023-11-19T04:18:15;3.08;;;2.45;;
48751;SDS011;34544;48.836;9.174;2023-11-19T04:20:41;3.35;;;2.20;;
48751;SDS011;34544;48.836;9.174;2023-11-19T04:23:08;3.17;;;2.33;;
48751;SDS011;34544;48.836;9.174;2023-11-19T04:25:34;4.13;;;2.10;;
48751;SDS011;34544;48.836;9.174;2023-11-19T04:28:01;2.85;;;2.13;;
48751;SDS011;34544;48.836;9.174;2023-11-19T04:30:28;2.60;;;1.70;;
48751;SDS011;34544;48.836;9.174;2023-11-19T04:32:53;2.92;;;2.00;;
48751;SDS011;34544;48.836;9.174;2023-11-19T04:35:19;2.60;;;2.03;;
48751;SDS011;34544;48.836;9.174;2023-11-19T04:37:45;2.42;;;2.00;;
48751;SDS011;34544;48.836;9.174;2023-11-19T04:40:12;2.78;;;2.00;;
48751;SDS011;34544;48.836;9.174;2023-11-19T04:42:38;3.28;;;1.85;;
48751;SDS011;34544;48.836;9.174;2023-11-19T04:45:07;2.05;;;1.50;;
48751;SDS011;34544;48.836;9.174;2023-11-19T04:47:35;3.45;;;1.30;;
48751;SDS011;34544;48.836;9.174;2023-11-19T04:50:02;2.20;;;1.70;;
48751;SDS011;34544;48.836;9.174;2023-11-19T04:52:28;1.52;;;1.20;;
48751;SDS011;34544;48.836;9.174;2023-11-19T04:54:54;2.45;;;1.50;;
48751;SDS011;34544;48.836;9.174;2023-11-19T04:57:20;1.58;;;1.10;;
48751;SDS011;34544;48.836;9.174;2023-11-19T04:59:46;1.55;;;1.30;;
48751;SDS011;34544;48.836;9.174;2023-11-19T05:02:12;1.30;;;1.20;;
48751;SDS011;34544;48.836;9.174;2023-11-19T05:04:42;0.60;;;0.60;;
48751;SDS011;34544;48.836;9.174;2023-11-19T05:07:09;0.63;;;0.63;;
48751;SDS011;34544;48.836;9.174;2023-11-19T05:09:35;0.47;;;0.47;;
48751;SDS011;34544;48.836;9.174;2023-11-19T05:12:01;0.30;;;0.30;;
48751;SDS011;34544;48.836;9.174;2023-11-19T05:14:27;0.30;;;0.30;;
48751;SDS011;34544;48.836;9.174;2023-11-19T05:16:53;0.20;;;0.20;;
48751;SDS011;34544;48.836;9.174;2023-11-19T05:19:18;0.75;;;0.13;;
48751;SDS011;34544;48.836;9.174;2023-11-19T05:21:44;1.80;;;0.17;;
48751;SDS011;34544;48.836;9.174;2023-11-19T05:24:10;0.10;;;0.10;;
48751;SDS011;34544;48.836;9.174;2023-11-19T05:26:37;0.20;;;0.17;;
48751;SDS011;34544;48.836;9.174;2023-11-19T05:29:03;0.17;;;0.17;;
48751;SDS011;34544;48.836;9.174;2023-11-19T05:31:29;0.08;;;0.08;;
48751;SDS011;34544;48.836;9.174;2023-11-19T05:33:55;0.10;;;0.10;;
48751;SDS011;34544;48.836;9.174;2023-11-19T05:36:21;3.20;;;0.10;;
48751;SDS011;34544;48.836;9.174;2023-11-19T05:38:46;0.10;;;0.10;;
48751;SDS011;34544;48.836;9.174;2023-11-19T05:41:12;0.15;;;0.03;;
48751;SDS011;34544;48.836;9.174;2023-11-19T05:43:38;0.13;;;0.13;;
48751;SDS011;34544;48.836;9.174;2023-11-19T05:46:05;0.40;;;0.20;;
48751;SDS011;34544;48.836;9.174;2023-11-19T05:48:32;2.47;;;0.20;;
48751;SDS011;34544;48.836;9.174;2023-11-19T05:50:58;2.30;;;0.40;;
48751;SDS011;34544;48.836;9.174;2023-11-19T05:53:25;0.57;;;0.20;;
48751;SDS011;34544;48.836;9.174;2023-11-19T05:55:51;0.57;;;0.20;;
48751;SDS011;34544;48.836;9.174;2023-11-19T05:58:27;1.08;;;0.30;;
48751;SDS011;34544;48.836;9.174;2023-11-19T06:00:57;0.25;;;0.10;;
48751;SDS011;34544;48.836;9.174;2023-11-19T06:03:26;0.00;;;0.00;;
48751;SDS011;34544;48.836;9.174;2023-11-19T06:05:51;0.10;;;0.10;;
48751;SDS011;34544;48.836;9.174;2023-11-19T06:08:17;0.30;;;0.30;;
48751;SDS011;34544;48.836;9.174;2023-11-19T06:10:45;0.22;;;0.20;;
48751;SDS011;34544;48.836;9.174;2023-11-19T06:13:12;0.55;;;0.30;;
48751;SDS011;34544;48.836;9.174;2023-11-19T06:15:40;0.45;;;0.38;;
48751;SDS011;34544;48.836;9.174;2023-11-19T06:18:09;0.20;;;0.20;;
48751;SDS011;34544;48.836;9.174;2023-11-19T06:20:37;1.73;;;0.30;;
48751;SDS011;34544;48.836;9.174;2023-11-19T06:23:02;1.38;;;0.50;;
48751;SDS011;34544;48.836;9.174;2023-11-19T06:25:28;0.55;;;0.47;;
48751;SDS011;34544;48.836;9.174;2023-11-19T06:27:54;0.82;;;0.57;;
48751;SDS011;34544;48.836;9.174;2023-11-19T06:30:20;1.13;;;0.40;;
48751;SDS011;34544;48.836;9.174;2023-11-19T06:32:46;1.35;;;0.35;;
48751;SDS011;34544;48.836;9.174;2023-11-19T06:35:12;0.25;;;0.13;;
48751;SDS011;34544;48.836;9.174;2023-11-19T06:37:39;0.75;;;0.60;;
48751;SDS011;34544;48.836;9.174;2023-11-19T06:40:06;0.70;;;0.50;;
48751;SDS011;34544;48.836;9.174;2023-11-19T06:42:34;2.30;;;0.50;;
48751;SDS011;34544;48.836;9.174;2023-11-19T06:45:01;0.52;;;0.40;;
48751;SDS011;34544;48.836;9.174;2023-11-19T06:47:28;0.90;;;0.52;;
48751;SDS011;34544;48.836;9.174;2023-11-19T06:49:54;0.28;;;0.22;;
48751;SDS011;34544;48.836;9.174;2023-11-19T06:52:20;0.30;;;0.28;;
48751;SDS011;34544;48.836;9.174;2023-11-19T06:54:47;0.30;;;0.20;;
48751;SDS011;34544;48.836;9.174;2023-11-19T06:57:12;0.65;;;0.30;;
48751;SDS011;34544;48.836;9.174;2023-11-19T06:59:39;2.45;;;0.30;;
48751;SDS011;34544;48.836;9.174;2023-11-19T07:02:05;0.13;;;0.13;;
48751;SDS011;34544;48.836;9.174;2023-11-19T07:04:32;0.30;;;0.28;;
48751;SDS011;34544;48.836;9.174;2023-11-19T07:07:01;0.40;;;0.20;;
48751;SDS011;34544;48.836;9.174;2023-11-19T07:09:27;0.35;;;0.20;;
48751;SDS011;34544;48.836;9.174;2023-11-19T07:11:53;0.30;;;0.30;;
48751;SDS011;34544;48.836;9.174;2023-11-19T07:14:19;0.20;;;0.20;;
48751;SDS011;34544;48.836;9.174;2023-11-19T07:16:45;4.63;;;0.40;;
48751;SDS011;34544;48.836;9.174;2023-11-19T07:19:11;1.90;;;0.73;;
48751;SDS011;34544;48.836;9.174;2023-11-19T07:21:39;0.88;;;0.30;;
48751;SDS011;34544;48.836;9.174;2023-11-19T07:24:09;0.77;;;0.40;;
48751;SDS011;34544;48.836;9.174;2023-11-19T07:26:46;0.63;;;0.20;;
48751;SDS011;34544;48.836;9.174;2023-11-19T07:29:13;0.20;;;0.20;;
48751;SDS011;34544;48.836;9.174;2023-11-19T07:31:40;0.40;;;0.30;;
48751;SDS011;34544;48.836;9.174;2023-11-19T07:34:06;0.38;;;0.38;;
48751;SDS011;34544;48.836;9.174;2023-11-19T07:36:34;0.30;;;0.30;;
48751;SDS011;34544;48.836;9.174;2023-11-19T07:39:01;0.85;;;0.30;;
48751;SDS011;34544;48.836;9.174;2023-11-19T07:41:27;0.77;;;0.40;;
48751;SDS011;34544;48.836;9.174;2023-11-19T07:43:53;1.50;;;0.32;;
48751;SDS011;34544;48.836;9.174;2023-11-19T07:46:19;1.25;;;0.28;;
48751;SDS011;34544;48.836;9.174;2023-11-19T07:48:45;0.43;;;0.22;;
48751;SDS011;34544;48.836;9.174;2023-11-19T07:51:14;0.55;;;0.55;;
48751;SDS011;34544;48.836;9.174;2023-11-19T07:53:40;0.93;;;0.40;;
48751;SDS011;34544;48.836;9.174;2023-11-19T07:56:07;0.30;;;0.30;;
48751;SDS011;34544;48.836;9.174;2023-11-19T07:58:33;0.30;;;0.20;;
48751;SDS011;34544;48.836;9.174;2023-11-19T08:01:00;3.75;;;0.20;;
48751;SDS011;34544;48.836;9.174;2023-11-19T08:03:27;1.70;;;0.95;;
48751;SDS011;34544;48.836;9.174;2023-11-19T08:05:56;0.32;;;0.30;;
48751;SDS011;34544;48.836;9.174;2023-11-19T08:08:22;0.45;;;0.40;;
48751;SDS011;34544;48.836;9.174;2023-11-19T08:10:48;0.38;;;0.30;;
48751;SDS011;34544;48.836;9.174;2023-11-19T08:13:17;1.75;;;0.30;;
48751;SDS011;34544;48.836;9.174;2023-11-19T08:15:43;2.35;;;0.30;;
48751;SDS011;34544;48.836;9.174;2023-11-19T08:18:10;0.50;;;0.20;;
48751;SDS011;34544;48.836;9.174;2023-11-19T08:20:36;0.55;;;0.38;;
48751;SDS011;34544;48.836;9.174;2023-11-19T08:23:02;1.08;;;0.82;;
48751;SDS011;34544;48.836;9.174;2023-11-19T08:25:31;0.50;;;0.40;;
48751;SDS011;34544;48.836;9.174;2023-11-19T08:27:59;1.40;;;0.40;;
48751;SDS011;34544;48.836;9.174;2023-11-19T08:30:25;0.30;;;0.30;;
48751;SDS011;34544;48.836;9.174;2023-11-19T08:32:52;3.00;;;0.50;;
48751;SDS011;34544;48.836;9.174;2023-11-19T08:35:18;2.35;;;0.77;;
48751;SDS011;34544;48.836;9.174;2023-11-19T08:37:44;1.90;;;1.00;;
48751;SDS011;34544;48.836;9.174;2023-11-19T08:40:11;0.98;;;0.50;;
48751;SDS011;34544;48.836;9.174;2023-11-19T08:42:40;0.45;;;0.40;;
48751;SDS011;34544;48.836;9.174;2023-11-19T08:45:06;0.50;;;0.30;;
48751;SDS011;34544;48.836;9.174;2023-11-19T08:47:35;1.35;;;0.47;;
48751;SDS011;34544;48.836;9.174;2023-11-19T08:50:02;0.52;;;0.30;;
48751;SDS011;34544;48.836;9.174;2023-11-19T08:52:29;1.13;;;0.20;;
48751;SDS011;34544;48.836;9.174;2023-11-19T08:54:55;1.30;;;0.40;;
48751;SDS011;34544;48.836;9.174;2023-11-19T08:57:21;0.63;;;0.20;;
48751;SDS011;34544;48.836;9.174;2023-11-19T08:59:47;0.75;;;0.30;;
48751;SDS011;34544;48.836;9.174;2023-11-19T09:02:12;0.52;;;0.30;;
48751;SDS011;34544;48.836;9.174;2023-11-19T09:04:38;1.58;;;0.70;;
48751;SDS011;34544;48.836;9.174;2023-11-19T09:07:04;1.35;;;0.70;;
48751;SDS011;34544;48.836;9.174;2023-11-19T09:09:30;0.95;;;0.65;;
48751;SDS011;34544;48.836;9.174;2023-11-19T09:11:59;1.27;;;0.65;;
48751;SDS011;34544;48.836;9.174;2023-11-19T09:14:24;4.78;;;1.00;;
48751;SDS011;34544;48.836;9.174;2023-11-19T09:16:51;0.75;;;0.35;;
48751;SDS011;34544;48.836;9.174;2023-11-19T09:19:17;1.95;;;0.65;;
48751;SDS011;34544;48.836;9.174;2023-11-19T09:21:43;0.75;;;0.30;;
48751;SDS011;34544;48.836;9.174;2023-11-19T09:24:09;0.30;;;0.30;;
48751;SDS011;34544;48.836;9.174;2023-11-19T09:26:35;0.82;;;0.50;;
48751;SDS011;34544;48.836;9.174;2023-11-19T09:29:01;0.45;;;0.30;;
48751;SDS011;34544;48.836;9.174;2023-11-19T09:31:27;0.50;;;0.43;;
48751;SDS011;34544;48.836;9.174;2023-11-19T09:33:54;0.45;;;0.30;;
48751;SDS011;34544;48.836;9.174;2023-11-19T09:36:20;2.35;;;0.47;;
48751;SDS011;34544;48.836;9.174;2023-11-19T09:38:46;1.48;;;0.45;;
48751;SDS011;34544;48.836;9.174;2023-11-19T09:41:11;1.13;;;0.60;;
48751;SDS011;34544;48.836;9.174;2023-11-19T09:43:41;3.28;;;0.95;;
48751;SDS011;34544;48.836;9.174;2023-11-19T09:46:09;0.88;;;0.52;;
48751;SDS011;34544;48.836;9.174;2023-11-19T09:48:39;1.42;;;0.57;;
48751;SDS011;34544;48.836;9.174;2023-11-19T09:51:20;2.17;;;0.63;;
48751;SDS011;34544;48.836;9.174;2023-11-19T09:53:48;2.47;;;0.82;;
48751;SDS011;34544;48.836;9.174;2023-11-19T09:56:15;1.30;;;0.80;;
48751;SDS011;34544;48.836;9.174;2023-11-19T09:58:42;0.88;;;0.55;;
48751;SDS011;34544;48.836;9.174;2023-11-19T10:01:07;3.35;;;1.60;;
48751;SDS011;34544;48.836;9.174;2023-11-19T10:03:37;1.17;;;0.90;;
48751;SDS011;34544;48.836;9.174;2023-11-19T10:06:08;0.80;;;0.60;;
48751;SDS011;34544;48.836;9.174;2023-11-19T10:08:40;1.98;;;1.00;;
48751;SDS011;34544;48.836;9.174;2023-11-19T10:11:07;0.77;;;0.70;;
48751;SDS011;34544;48.836;9.174;2023-11-19T10:16:13;0.85;;;0.68;;
48751;SDS011;34544;48.836;9.174;2023-11-19T10:18:44;1.33;;;1.08;;
48751;SDS011;34544;48.836;9.174;2023-11-19T10:21:14;1.57;;;1.00;;
48751;SDS011;34544;48.836;9.174;2023-11-19T10:23:49;2.22;;;1.17;;
48751;SDS011;34544;48.836;9.174;2023-11-19T10:26:19;2.15;;;0.95;;
48751;SDS011;34544;48.836;9.174;2023-11-19T10:28:46;1.90;;;0.68;;
48751;SDS011;34544;48.836;9.174;2023-11-19T10:31:16;1.77;;;1.15;;
48751;SDS011;34544;48.836;9.174;2023-11-19T10:33:44;1.15;;;0.60;;
48751;SDS011;34544;48.836;9.174;2023-11-19T10:36:11;0.73;;;0.68;;
48751;SDS011;34544;48.836;9.174;2023-11-19T10:38:38;1.65;;;0.60;;
48751;SDS011;34544;48.836;9.174;2023-11-19T10:41:04;2.63;;;0.50;;
48751;SDS011;34544;48.836;9.174;2023-11-19T10:43:44;0.98;;;0.35;;
48751;SDS011;34544;48.836;9.174;2023-11-19T10:46:11;3.40;;;0.68;;
48751;SDS011;34544;48.836;9.174;2023-11-19T10:48:39;1.90;;;0.50;;
48751;SDS011;34544;48.836;9.174;2023-11-19T10:51:06;0.52;;;0.50;;
48751;SDS011;34544;48.836;9.174;2023-11-19T10:53:36;0.85;;;0.50;;
48751;SDS011;34544;48.836;9.174;2023-11-19T10:56:09;0.35;;;0.28;;
48751;SDS011;34544;48.836;9.174;2023-11-19T10:58:44;1.13;;;0.47;;
48751;SDS011;34544;48.836;9.174;2023-11-19T11:01:18;2.13;;;1.00;;
48751;SDS011;34544;48.836;9.174;2023-11-19T11:03:48;1.48;;;0.43;;
48751;SDS011;34544;48.836;9.174;2023-11-19T11:06:19;0.85;;;0.43;;
48751;SDS011;34544;48.836;9.174;2023-11-19T11:08:47;1.00;;;0.43;;
48751;SDS011;34544;48.836;9.174;2023-11-19T11:11:15;1.05;;;0.30;;
48751;SDS011;34544;48.836;9.174;2023-11-19T11:13:42;1.95;;;0.45;;
48751;SDS011;34544;48.836;9.174;2023-11-19T11:16:10;1.65;;;0.70;;
48751;SDS011;34544;48.836;9.174;2023-11-19T11:18:36;1.58;;;0.30;;
48751;SDS011;34544;48.836;9.174;2023-11-19T11:21:04;2.60;;;0.52;;
48751;SDS011;34544;48.836;9.174;2023-11-19T11:23:47;2.88;;;0.95;;
48751;SDS011;34544;48.836;9.174;2023-11-19T11:26:30;1.17;;;0.45;;
48751;SDS011;34544;48.836;9.174;2023-11-19T11:29:31;1.65;;;0.50;;
48751;SDS011;34544;48.836;9.174;2023-11-19T11:37:44;0.93;;;0.30;;
48751;SDS011;34544;48.836;9.174;2023-11-19T11:40:17;2.65;;;0.55;;
48751;SDS011;34544;48.836;9.174;2023-11-19T11:42:44;5.00;;;0.70;;
48751;SDS011;34544;48.836;9.174;2023-11-19T11:45:11;0.95;;;0.40;;
48751;SDS011;34544;48.836;9.174;2023-11-19T11:50:12;1.65;;;0.63;;
48751;SDS011;34544;48.836;9.174;2023-11-19T11:58:08;1.83;;;0.40;;
48751;SDS011;34544;48.836;9.174;2023-11-19T12:00:39;1.67;;;0.70;;
48751;SDS011;34544;48.836;9.174;2023-11-19T12:03:06;4.53;;;0.55;;
48751;SDS011;34544;48.836;9.174;2023-11-19T12:05:38;0.95;;;0.45;;
48751;SDS011;34544;48.836;9.174;2023-11-19T12:08:08;0.50;;;0.40;;
48751;SDS011;34544;48.836;9.174;2023-11-19T12:10:38;1.45;;;0.57;;
48751;SDS011;34544;48.836;9.174;2023-11-19T12:13:10;2.05;;;0.40;;
48751;SDS011;34544;48.836;9.174;2023-11-19T12:18:24;2.28;;;0.90;;
48751;SDS011;34544;48.836;9.174;2023-11-19T12:20:53;2.80;;;1.20;;
48751;SDS011;34544;48.836;9.174;2023-11-19T12:23:19;0.73;;;0.50;;
48751;SDS011;34544;48.836;9.174;2023-11-19T12:25:45;0.93;;;0.50;;
48751;SDS011;34544;48.836;9.174;2023-11-19T12:28:12;0.93;;;0.35;;
48751;SDS011;34544;48.836;9.174;2023-11-19T12:30:39;1.15;;;0.43;;
48751;SDS011;34544;48.836;9.174;2023-11-19T12:33:08;3.25;;;0.65;;
48751;SDS011;34544;48.836;9.174;2023-11-19T12:35:42;0.80;;;0.40;;
48751;SDS011;34544;48.836;9.174;2023-11-19T12:38:22;0.52;;;0.40;;
48751;SDS011;34544;48.836;9.174;2023-11-19T12:41:05;0.50;;;0.20;;
48751;SDS011;34544;48.836;9.174;2023-11-19T12:43:34;0.22;;;0.22;;
48751;SDS011;34544;48.836;9.174;2023-11-19T12:46:01;0.95;;;0.40;;
48751;SDS011;34544;48.836;9.174;2023-11-19T12:48:27;1.80;;;0.47;;
48751;SDS011;34544;48.836;9.174;2023-11-19T12:50:57;3.45;;;0.22;;
48751;SDS011;34544;48.836;9.174;2023-11-19T12:53:25;1.25;;;0.50;;
48751;SDS011;34544;48.836;9.174;2023-11-19T12:55:52;1.48;;;0.60;;
48751;SDS011;34544;48.836;9.174;2023-11-19T12:58:31;1.02;;;0.40;;
48751;SDS011;34544;48.836;9.174;2023-11-19T13:00:59;1.10;;;0.50;;
48751;SDS011;34544;48.836;9.174;2023-11-19T13:03:29;6.55;;;0.75;;
48751;SDS011;34544;48.836;9.174;2023-11-19T13:06:06;0.38;;;0.25;;
48751;SDS011;34544;48.836;9.174;2023-11-19T13:08:54;2.88;;;0.60;;
48751;SDS011;34544;48.836;9.174;2023-11-19T13:11:30;1.17;;;0.30;;
48751;SDS011;34544;48.836;9.174;2023-11-19T13:13:58;2.20;;;0.80;;
48751;SDS011;34544;48.836;9.174;2023-11-19T13:16:29;2.53;;;0.60;;
48751;SDS011;34544;48.836;9.174;2023-11-19T13:18:56;2.38;;;1.55;;
48751;SDS011;34544;48.836;9.174;2023-11-19T13:21:23;2.15;;;0.50;;
48751;SDS011;34544;48.836;9.174;2023-11-19T13:23:50;1.55;;;0.65;;
48751;SDS011;34544;48.836;9.174;2023-11-19T13:26:16;3.20;;;0.50;;
48751;SDS011;34544;48.836;9.174;2023-11-19T13:28:42;1.63;;;0.50;;
48751;SDS011;34544;48.836;9.174;2023-11-19T13:31:08;0.98;;;0.35;;
48751;SDS011;34544;48.836;9.174;2023-11-19T13:33:35;1.13;;;0.38;;
48751;SDS011;34544;48.836;9.174;2023-11-19T13:36:02;0.77;;;0.43;;
48751;SDS011;34544;48.836;9.174;2023-11-19T13:38:31;1.00;;;0.32;;
48751;SDS011;34544;48.836;9.174;2023-11-19T13:40:58;2.17;;;0.68;;
48751;SDS011;34544;48.836;9.174;2023-11-19T13:43:24;1.17;;;0.95;;
48751;SDS011;34544;48.836;9.174;2023-11-19T13:45:51;18.25;;;1.65;;
48751;SDS011;34544;48.836;9.174;2023-11-19T13:48:19;1.80;;;0.45;;
48751;SDS011;34544;48.836;9.174;2023-11-19T13:50:45;1.98;;;0.35;;
48751;SDS011;34544;48.836;9.174;2023-11-19T13:53:11;2.17;;;0.60;;
48751;SDS011;34544;48.836;9.174;2023-11-19T13:55:38;1.20;;;0.60;;
48751;SDS011;34544;48.836;9.174;2023-11-19T13:58:04;1.95;;;0.65;;
48751;SDS011;34544;48.836;9.174;2023-11-19T14:00:30;2.33;;;0.93;;
48751;SDS011;34544;48.836;9.174;2023-11-19T14:02:56;1.05;;;0.45;;
48751;SDS011;34544;48.836;9.174;2023-11-19T14:05:22;0.70;;;0.30;;
48751;SDS011;34544;48.836;9.174;2023-11-19T14:07:48;2.83;;;0.60;;
48751;SDS011;34544;48.836;9.174;2023-11-19T14:10:16;1.15;;;0.43;;
48751;SDS011;34544;48.836;9.174;2023-11-19T14:12:43;2.47;;;0.47;;
48751;SDS011;34544;48.836;9.174;2023-11-19T14:15:09;1.52;;;0.40;;
48751;SDS011;34544;48.836;9.174;2023-11-19T14:17:38;2.30;;;0.50;;
48751;SDS011;34544;48.836;9.174;2023-11-19T14:20:07;1.92;;;0.70;;
48751;SDS011;34544;48.836;9.174;2023-11-19T14:22:43;1.45;;;0.50;;
48751;SDS011;34544;48.836;9.174;2023-11-19T14:25:10;3.63;;;0.50;;
48751;SDS011;34544;48.836;9.174;2023-11-19T14:27:37;0.60;;;0.38;;
48751;SDS011;34544;48.836;9.174;2023-11-19T14:30:06;2.42;;;1.48;;
48751;SDS011;34544;48.836;9.174;2023-11-19T14:32:39;0.70;;;0.50;;
48751;SDS011;34544;48.836;9.174;2023-11-19T14:35:11;1.63;;;0.65;;
48751;SDS011;34544;48.836;9.174;2023-11-19T14:37:40;1.75;;;0.55;;
48751;SDS011;34544;48.836;9.174;2023-11-19T14:40:06;1.38;;;0.60;;
48751;SDS011;34544;48.836;9.174;2023-11-19T14:42:35;0.82;;;0.60;;
48751;SDS011;34544;48.836;9.174;2023-11-19T14:45:00;3.50;;;0.82;;
48751;SDS011;34544;48.836;9.174;2023-11-19T14:47:26;1.10;;;0.60;;
48751;SDS011;34544;48.836;9.174;2023-11-19T14:49:54;2.42;;;0.57;;
48751;SDS011;34544;48.836;9.174;2023-11-19T14:52:20;1.48;;;0.60;;
48751;SDS011;34544;48.836;9.174;2023-11-19T14:54:46;1.33;;;0.43;;
48751;SDS011;34544;48.836;9.174;2023-11-19T14:57:12;2.85;;;0.57;;
48751;SDS011;34544;48.836;9.174;2023-11-19T14:59:41;1.77;;;0.50;;
48751;SDS011;34544;48.836;9.174;2023-11-19T15:02:06;1.23;;;0.50;;
48751;SDS011;34544;48.836;9.174;2023-11-19T15:04:32;1.27;;;0.60;;
48751;SDS011;34544;48.836;9.174;2023-11-19T15:06:59;4.93;;;0.82;;
48751;SDS011;34544;48.836;9.174;2023-11-19T15:09:26;2.53;;;0.90;;